sensor_id;sensor_type;location;lat;lon;timestamp;temperature;humidity
49042;DHT22;34859;51.608;11.462;2022-12-18T00:02:12;-8.60;99.90
49042;DHT22;34859;51.608;11.462;2022-12-18T00:04:56;-8.70;99.90
49042;DHT22;34859;51.608;11.462;2022-12-18T00:07:40;-8.70;99.90
49042;DHT22;34859;51.608;11.462;2022-12-18T00:10:25;-8.70;99.90
49042;DHT22;34859;51.608;11.462;2022-12-18T00:13:09;-8.70;99.90
49042;DHT22;34859;51.608;11.462;2022-12-18T00:15:53;-8.70;99.90
49042;DHT22;34859;51.608;11.462;2022-12-18T00:18:38;-8.70;99.90
49042;DHT22;34859;51.608;11.462;2022-12-18T00:21:22;-8.80;99.90
49042;DHT22;34859;51.608;11.462;2022-12-18T00:24:07;-8.90;99.90
49042;DHT22;34859;51.608;11.462;2022-12-18T00:26:51;-8.80;99.90
49042;DHT22;34859;51.608;11.462;2022-12-18T00:29:35;-9.00;99.90
49042;DHT22;34859;51.608;11.462;2022-12-18T00:32:19;-9.00;99.90
49042;DHT22;34859;51.608;11.462;2022-12-18T00:35:04;-9.10;99.90
49042;DHT22;34859;51.608;11.462;2022-12-18T00:37:49;-9.00;99.90
49042;DHT22;34859;51.608;11.462;2022-12-18T00:40:33;-9.00;99.90
49042;DHT22;34859;51.608;11.462;2022-12-18T00:43:17;-9.10;99.90
49042;DHT22;34859;51.608;11.462;2022-12-18T00:46:01;-9.10;99.90
49042;DHT22;34859;51.608;11.462;2022-12-18T00:48:45;-9.10;99.90
49042;DHT22;34859;51.608;11.462;2022-12-18T00:51:30;-9.10;99.90
49042;DHT22;34859;51.608;11.462;2022-12-18T00:54:14;-9.20;99.90
49042;DHT22;34859;51.608;11.462;2022-12-18T00:56:58;-9.20;99.90
49042;DHT22;34859;51.608;11.462;2022-12-18T00:59:42;-9.20;99.90
49042;DHT22;34859;51.608;11.462;2022-12-18T01:02:26;-9.20;99.90
49042;DHT22;34859;51.608;11.462;2022-12-18T01:05:11;-9.20;99.90
49042;DHT22;34859;51.608;11.462;2022-12-18T01:07:55;-9.20;99.90
49042;DHT22;34859;51.608;11.462;2022-12-18T01:10:40;-9.20;99.90
49042;DHT22;34859;51.608;11.462;2022-12-18T01:13:25;-9.30;99.90
49042;DHT22;34859;51.608;11.462;2022-12-18T01:16:13;-9.30;99.90
49042;DHT22;34859;51.608;11.462;2022-12-18T01:18:57;-9.30;99.90
49042;DHT22;34859;51.608;11.462;2022-12-18T01:21:41;-9.30;99.90
49042;DHT22;34859;51.608;11.462;2022-12-18T01:24:25;-9.30;99.90
49042;DHT22;34859;51.608;11.462;2022-12-18T01:27:10;-9.40;99.90
49042;DHT22;34859;51.608;11.462;2022-12-18T01:29:54;-9.40;99.90
49042;DHT22;34859;51.608;11.462;2022-12-18T01:32:38;-9.50;99.90
49042;DHT22;34859;51.608;11.462;2022-12-18T01:35:22;-9.50;99.90
49042;DHT22;34859;51.608;11.462;2022-12-18T01:38:06;-9.50;99.90
49042;DHT22;34859;51.608;11.462;2022-12-18T01:40:56;-9.50;99.90
49042;DHT22;34859;51.608;11.462;2022-12-18T01:43:44;-9.50;99.90
49042;DHT22;34859;51.608;11.462;2022-12-18T01:46:29;-9.60;99.90
49042;DHT22;34859;51.608;11.462;2022-12-18T01:49:13;-9.50;99.90
49042;DHT22;34859;51.608;11.462;2022-12-18T01:51:57;-9.60;99.90
49042;DHT22;34859;51.608;11.462;2022-12-18T01:54:41;-9.60;99.90
49042;DHT22;34859;51.608;11.462;2022-12-18T01:57:26;-9.80;99.90
49042;DHT22;34859;51.608;11.462;2022-12-18T02:00:12;-9.70;99.90
49042;DHT22;34859;51.608;11.462;2022-12-18T02:02:57;-9.70;99.90
49042;DHT22;34859;51.608;11.462;2022-12-18T02:11:45;-9.80;99.90
49042;DHT22;34859;51.608;11.462;2022-12-18T02:14:41;-9.80;99.90
49042;DHT22;34859;51.608;11.462;2022-12-18T02:17:37;-9.80;99.90
49042;DHT22;34859;51.608;11.462;2022-12-18T02:23:24;-9.80;99.90
49042;DHT22;34859;51.608;11.462;2022-12-18T02:26:21;-9.80;99.90
49042;DHT22;34859;51.608;11.462;2022-12-18T02:29:10;-9.80;99.90
49042;DHT22;34859;51.608;11.462;2022-12-18T02:31:56;-9.90;99.90
49042;DHT22;34859;51.608;11.462;2022-12-18T02:34:41;-9.90;99.90
49042;DHT22;34859;51.608;11.462;2022-12-18T02:37:26;-9.90;99.90
49042;DHT22;34859;51.608;11.462;2022-12-18T02:40:11;-9.90;99.90
49042;DHT22;34859;51.608;11.462;2022-12-18T02:43:07;-9.90;99.90
49042;DHT22;34859;51.608;11.462;2022-12-18T02:45:58;-9.90;99.90
49042;DHT22;34859;51.608;11.462;2022-12-18T02:48:43;-10.00;99.90
49042;DHT22;34859;51.608;11.462;2022-12-18T02:51:29;-10.00;99.90
49042;DHT22;34859;51.608;11.462;2022-12-18T02:54:24;-10.00;99.90
49042;DHT22;34859;51.608;11.462;2022-12-18T02:57:20;-10.00;99.90
49042;DHT22;34859;51.608;11.462;2022-12-18T03:00:09;-10.00;99.90
49042;DHT22;34859;51.608;11.462;2022-12-18T03:02:57;-10.00;99.90
49042;DHT22;34859;51.608;11.462;2022-12-18T03:05:50;-10.00;99.90
49042;DHT22;34859;51.608;11.462;2022-12-18T03:08:37;-10.00;99.90
49042;DHT22;34859;51.608;11.462;2022-12-18T03:11:22;-10.00;99.90
49042;DHT22;34859;51.608;11.462;2022-12-18T03:14:26;-10.10;99.90
49042;DHT22;34859;51.608;11.462;2022-12-18T03:17:13;-10.10;99.90
49042;DHT22;34859;51.608;11.462;2022-12-18T03:20:00;-10.10;99.90
49042;DHT22;34859;51.608;11.462;2022-12-18T03:22:47;-10.20;99.90
49042;DHT22;34859;51.608;11.462;2022-12-18T03:25:33;-10.20;99.90
49042;DHT22;34859;51.608;11.462;2022-12-18T03:28:21;-10.20;99.90
49042;DHT22;34859;51.608;11.462;2022-12-18T03:31:07;-10.20;99.90
49042;DHT22;34859;51.608;11.462;2022-12-18T03:33:54;-10.20;99.90
49042;DHT22;34859;51.608;11.462;2022-12-18T03:36:38;-10.20;99.90
49042;DHT22;34859;51.608;11.462;2022-12-18T03:39:22;-10.30;99.90
49042;DHT22;34859;51.608;11.462;2022-12-18T03:42:15;-10.30;99.90
49042;DHT22;34859;51.608;11.462;2022-12-18T03:45:11;-10.30;99.90
49042;DHT22;34859;51.608;11.462;2022-12-18T03:47:58;-10.20;99.90
49042;DHT22;34859;51.608;11.462;2022-12-18T03:50:57;-10.20;99.90
49042;DHT22;34859;51.608;11.462;2022-12-18T03:53:56;-10.30;99.90
49042;DHT22;34859;51.608;11.462;2022-12-18T03:56:42;-10.20;99.90
49042;DHT22;34859;51.608;11.462;2022-12-18T03:59:27;-10.20;99.90
49042;DHT22;34859;51.608;11.462;2022-12-18T04:02:12;-10.20;99.90
49042;DHT22;34859;51.608;11.462;2022-12-18T04:04:58;-10.20;99.90
49042;DHT22;34859;51.608;11.462;2022-12-18T04:07:44;-10.20;99.90
49042;DHT22;34859;51.608;11.462;2022-12-18T04:10:29;-10.30;99.90
49042;DHT22;34859;51.608;11.462;2022-12-18T04:13:21;-10.40;99.90
49042;DHT22;34859;51.608;11.462;2022-12-18T04:16:05;-10.70;99.90
49042;DHT22;34859;51.608;11.462;2022-12-18T04:18:49;-10.60;99.90
49042;DHT22;34859;51.608;11.462;2022-12-18T04:21:33;-10.50;99.90
49042;DHT22;34859;51.608;11.462;2022-12-18T04:24:17;-10.50;99.90
49042;DHT22;34859;51.608;11.462;2022-12-18T04:27:02;-10.60;99.90
49042;DHT22;34859;51.608;11.462;2022-12-18T04:29:46;-10.60;99.90
49042;DHT22;34859;51.608;11.462;2022-12-18T04:32:30;-10.60;99.90
49042;DHT22;34859;51.608;11.462;2022-12-18T04:35:14;-10.60;99.90
49042;DHT22;34859;51.608;11.462;2022-12-18T04:37:58;-10.60;99.90
49042;DHT22;34859;51.608;11.462;2022-12-18T04:40:43;-10.60;99.90
49042;DHT22;34859;51.608;11.462;2022-12-18T04:43:27;-10.60;99.90
49042;DHT22;34859;51.608;11.462;2022-12-18T04:46:11;-10.60;99.90
49042;DHT22;34859;51.608;11.462;2022-12-18T04:48:55;-10.60;99.90
49042;DHT22;34859;51.608;11.462;2022-12-18T04:51:39;-10.60;99.90
49042;DHT22;34859;51.608;11.462;2022-12-18T04:54:23;-10.60;99.90
49042;DHT22;34859;51.608;11.462;2022-12-18T04:57:08;-10.60;99.90
49042;DHT22;34859;51.608;11.462;2022-12-18T04:59:52;-10.80;99.90
49042;DHT22;34859;51.608;11.462;2022-12-18T05:02:36;-10.90;99.90
49042;DHT22;34859;51.608;11.462;2022-12-18T05:05:20;-10.80;99.90
49042;DHT22;34859;51.608;11.462;2022-12-18T05:08:04;-10.70;99.90
49042;DHT22;34859;51.608;11.462;2022-12-18T05:10:49;-10.70;99.90
49042;DHT22;34859;51.608;11.462;2022-12-18T05:13:33;-10.70;99.90
49042;DHT22;34859;51.608;11.462;2022-12-18T05:16:17;-10.70;99.90
49042;DHT22;34859;51.608;11.462;2022-12-18T05:19:02;-10.70;99.90
49042;DHT22;34859;51.608;11.462;2022-12-18T05:21:46;-10.70;99.90
49042;DHT22;34859;51.608;11.462;2022-12-18T05:24:30;-10.70;99.90
49042;DHT22;34859;51.608;11.462;2022-12-18T05:27:14;-10.70;99.90
49042;DHT22;34859;51.608;11.462;2022-12-18T05:29:58;-10.80;99.90
49042;DHT22;34859;51.608;11.462;2022-12-18T05:32:42;-10.80;99.90
49042;DHT22;34859;51.608;11.462;2022-12-18T05:35:27;-10.80;99.90
49042;DHT22;34859;51.608;11.462;2022-12-18T05:38:11;-10.80;99.90
49042;DHT22;34859;51.608;11.462;2022-12-18T05:40:55;-10.80;99.90
49042;DHT22;34859;51.608;11.462;2022-12-18T05:43:39;-10.90;99.90
49042;DHT22;34859;51.608;11.462;2022-12-18T05:46:24;-10.90;99.90
49042;DHT22;34859;51.608;11.462;2022-12-18T05:49:08;-10.90;99.90
49042;DHT22;34859;51.608;11.462;2022-12-18T05:51:53;-11.00;99.90
49042;DHT22;34859;51.608;11.462;2022-12-18T05:54:37;-10.90;99.90
49042;DHT22;34859;51.608;11.462;2022-12-18T05:57:21;-11.00;99.90
49042;DHT22;34859;51.608;11.462;2022-12-18T06:00:06;-11.00;99.90
49042;DHT22;34859;51.608;11.462;2022-12-18T06:02:50;-11.00;99.90
49042;DHT22;34859;51.608;11.462;2022-12-18T06:05:35;-11.10;99.90
49042;DHT22;34859;51.608;11.462;2022-12-18T06:08:20;-11.10;99.90
49042;DHT22;34859;51.608;11.462;2022-12-18T06:11:04;-11.20;99.90
49042;DHT22;34859;51.608;11.462;2022-12-18T06:13:55;-11.20;99.90
49042;DHT22;34859;51.608;11.462;2022-12-18T06:16:39;-11.20;99.90
49042;DHT22;34859;51.608;11.462;2022-12-18T06:19:23;-11.10;99.90
49042;DHT22;34859;51.608;11.462;2022-12-18T06:22:07;-11.10;99.90
49042;DHT22;34859;51.608;11.462;2022-12-18T06:24:51;-11.00;99.90
49042;DHT22;34859;51.608;11.462;2022-12-18T06:27:35;-11.10;99.90
49042;DHT22;34859;51.608;11.462;2022-12-18T06:30:19;-11.10;99.90
49042;DHT22;34859;51.608;11.462;2022-12-18T06:33:04;-11.10;99.90
49042;DHT22;34859;51.608;11.462;2022-12-18T06:35:48;-11.10;99.90
49042;DHT22;34859;51.608;11.462;2022-12-18T06:38:32;-11.10;99.90
49042;DHT22;34859;51.608;11.462;2022-12-18T06:41:17;-11.10;99.90
49042;DHT22;34859;51.608;11.462;2022-12-18T06:44:02;-11.30;99.90
49042;DHT22;34859;51.608;11.462;2022-12-18T06:46:46;-11.50;99.90
49042;DHT22;34859;51.608;11.462;2022-12-18T06:49:31;-11.60;99.90
49042;DHT22;34859;51.608;11.462;2022-12-18T06:52:15;-11.60;99.90
49042;DHT22;34859;51.608;11.462;2022-12-18T06:54:59;-11.40;99.90
49042;DHT22;34859;51.608;11.462;2022-12-18T06:57:43;-11.20;99.90
49042;DHT22;34859;51.608;11.462;2022-12-18T07:00:27;-11.20;99.90
49042;DHT22;34859;51.608;11.462;2022-12-18T07:03:12;-11.20;99.90
49042;DHT22;34859;51.608;11.462;2022-12-18T07:05:57;-11.10;99.90
49042;DHT22;34859;51.608;11.462;2022-12-18T07:08:41;-11.10;99.90
49042;DHT22;34859;51.608;11.462;2022-12-18T07:11:25;-11.10;99.90
49042;DHT22;34859;51.608;11.462;2022-12-18T07:14:09;-11.10;99.90
49042;DHT22;34859;51.608;11.462;2022-12-18T07:16:53;-11.10;99.90
49042;DHT22;34859;51.608;11.462;2022-12-18T07:19:38;-11.10;99.90
49042;DHT22;34859;51.608;11.462;2022-12-18T07:22:22;-11.10;99.90
49042;DHT22;34859;51.608;11.462;2022-12-18T07:25:06;-11.20;99.90
49042;DHT22;34859;51.608;11.462;2022-12-18T07:27:51;-11.20;99.90
49042;DHT22;34859;51.608;11.462;2022-12-18T07:30:36;-11.20;99.90
49042;DHT22;34859;51.608;11.462;2022-12-18T07:33:21;-11.20;99.90
49042;DHT22;34859;51.608;11.462;2022-12-18T07:36:05;-11.10;99.90
49042;DHT22;34859;51.608;11.462;2022-12-18T07:38:50;-11.10;99.90
49042;DHT22;34859;51.608;11.462;2022-12-18T07:41:35;-11.10;99.90
49042;DHT22;34859;51.608;11.462;2022-12-18T07:44:20;-11.10;99.90
49042;DHT22;34859;51.608;11.462;2022-12-18T07:47:04;-11.10;99.90
49042;DHT22;34859;51.608;11.462;2022-12-18T07:49:48;-11.00;99.90
49042;DHT22;34859;51.608;11.462;2022-12-18T07:52:32;-11.10;99.90
49042;DHT22;34859;51.608;11.462;2022-12-18T07:55:17;-11.10;99.90
49042;DHT22;34859;51.608;11.462;2022-12-18T07:58:02;-11.00;99.90
49042;DHT22;34859;51.608;11.462;2022-12-18T08:00:46;-11.00;99.90
49042;DHT22;34859;51.608;11.462;2022-12-18T08:03:30;-11.00;99.90
49042;DHT22;34859;51.608;11.462;2022-12-18T08:06:15;-10.90;99.90
49042;DHT22;34859;51.608;11.462;2022-12-18T08:08:59;-10.90;99.90
49042;DHT22;34859;51.608;11.462;2022-12-18T08:11:43;-10.80;99.90
49042;DHT22;34859;51.608;11.462;2022-12-18T08:14:29;-10.80;99.90
49042;DHT22;34859;51.608;11.462;2022-12-18T08:17:13;-10.70;99.90
49042;DHT22;34859;51.608;11.462;2022-12-18T08:19:57;-10.60;99.90
49042;DHT22;34859;51.608;11.462;2022-12-18T08:22:42;-10.60;99.90
49042;DHT22;34859;51.608;11.462;2022-12-18T08:25:26;-10.50;99.90
49042;DHT22;34859;51.608;11.462;2022-12-18T08:28:10;-10.40;99.90
49042;DHT22;34859;51.608;11.462;2022-12-18T08:30:54;-10.40;99.90
49042;DHT22;34859;51.608;11.462;2022-12-18T08:33:40;-10.30;99.90
49042;DHT22;34859;51.608;11.462;2022-12-18T08:36:24;-10.20;99.90
49042;DHT22;34859;51.608;11.462;2022-12-18T08:39:08;-10.20;99.90
49042;DHT22;34859;51.608;11.462;2022-12-18T08:41:53;-10.10;99.90
49042;DHT22;34859;51.608;11.462;2022-12-18T08:44:56;-10.00;99.90
49042;DHT22;34859;51.608;11.462;2022-12-18T08:47:40;-9.90;99.90
49042;DHT22;34859;51.608;11.462;2022-12-18T08:50:25;-9.90;99.90
49042;DHT22;34859;51.608;11.462;2022-12-18T08:53:09;-9.80;99.90
49042;DHT22;34859;51.608;11.462;2022-12-18T08:55:53;-9.70;99.90
49042;DHT22;34859;51.608;11.462;2022-12-18T08:58:37;-9.70;99.90
49042;DHT22;34859;51.608;11.462;2022-12-18T09:01:22;-9.50;99.90
49042;DHT22;34859;51.608;11.462;2022-12-18T09:04:07;-9.40;99.90
49042;DHT22;34859;51.608;11.462;2022-12-18T09:06:51;-9.40;99.90
49042;DHT22;34859;51.608;11.462;2022-12-18T09:09:35;-9.40;99.90
49042;DHT22;34859;51.608;11.462;2022-12-18T09:12:19;-9.40;99.90
49042;DHT22;34859;51.608;11.462;2022-12-18T09:15:04;-9.30;99.90
49042;DHT22;34859;51.608;11.462;2022-12-18T09:17:48;-9.30;99.90
49042;DHT22;34859;51.608;11.462;2022-12-18T09:20:33;-9.20;99.90
49042;DHT22;34859;51.608;11.462;2022-12-18T09:23:17;-9.10;99.90
49042;DHT22;34859;51.608;11.462;2022-12-18T09:26:02;-9.00;99.90
49042;DHT22;34859;51.608;11.462;2022-12-18T09:28:46;-8.90;99.90
49042;DHT22;34859;51.608;11.462;2022-12-18T09:31:30;-8.80;99.90
49042;DHT22;34859;51.608;11.462;2022-12-18T09:34:15;-8.60;99.90
49042;DHT22;34859;51.608;11.462;2022-12-18T09:37:00;-8.50;99.90
49042;DHT22;34859;51.608;11.462;2022-12-18T09:39:44;-8.50;99.90
49042;DHT22;34859;51.608;11.462;2022-12-18T09:42:28;-8.40;99.90
49042;DHT22;34859;51.608;11.462;2022-12-18T09:45:13;-8.30;99.90
49042;DHT22;34859;51.608;11.462;2022-12-18T09:47:58;-8.20;99.90
49042;DHT22;34859;51.608;11.462;2022-12-18T09:50:42;-8.20;99.90
49042;DHT22;34859;51.608;11.462;2022-12-18T09:53:30;-8.10;99.90
49042;DHT22;34859;51.608;11.462;2022-12-18T09:56:16;-7.90;99.90
49042;DHT22;34859;51.608;11.462;2022-12-18T09:59:02;-7.70;99.90
49042;DHT22;34859;51.608;11.462;2022-12-18T10:01:48;-7.50;99.90
49042;DHT22;34859;51.608;11.462;2022-12-18T10:04:32;-7.30;99.90
49042;DHT22;34859;51.608;11.462;2022-12-18T10:07:23;-7.10;99.90
49042;DHT22;34859;51.608;11.462;2022-12-18T10:10:14;-7.00;99.90
49042;DHT22;34859;51.608;11.462;2022-12-18T10:13:02;-6.90;99.90
49042;DHT22;34859;51.608;11.462;2022-12-18T10:19:11;-6.60;99.90
49042;DHT22;34859;51.608;11.462;2022-12-18T10:27:44;-6.30;99.90
49042;DHT22;34859;51.608;11.462;2022-12-18T10:30:29;-6.20;99.90
49042;DHT22;34859;51.608;11.462;2022-12-18T10:33:17;-6.20;99.90
49042;DHT22;34859;51.608;11.462;2022-12-18T10:36:01;-6.00;99.90
49042;DHT22;34859;51.608;11.462;2022-12-18T10:38:46;-5.80;99.90
49042;DHT22;34859;51.608;11.462;2022-12-18T10:41:30;-5.60;99.90
49042;DHT22;34859;51.608;11.462;2022-12-18T10:44:22;-5.50;99.90
49042;DHT22;34859;51.608;11.462;2022-12-18T10:47:10;-5.30;99.90
49042;DHT22;34859;51.608;11.462;2022-12-18T10:49:55;-5.10;99.90
49042;DHT22;34859;51.608;11.462;2022-12-18T10:52:39;-5.00;99.90
49042;DHT22;34859;51.608;11.462;2022-12-18T10:55:23;-5.00;99.90
49042;DHT22;34859;51.608;11.462;2022-12-18T10:58:18;-5.00;99.90
49042;DHT22;34859;51.608;11.462;2022-12-18T11:06:36;-4.90;99.90
49042;DHT22;34859;51.608;11.462;2022-12-18T11:09:37;-4.90;99.90
49042;DHT22;34859;51.608;11.462;2022-12-18T11:12:21;-4.80;99.90
49042;DHT22;34859;51.608;11.462;2022-12-18T11:15:13;-4.80;99.90
49042;DHT22;34859;51.608;11.462;2022-12-18T11:17:59;-4.70;99.90
49042;DHT22;34859;51.608;11.462;2022-12-18T11:20:43;-4.60;99.90
49042;DHT22;34859;51.608;11.462;2022-12-18T11:23:34;-4.60;99.90
49042;DHT22;34859;51.608;11.462;2022-12-18T11:26:19;-4.60;99.90
49042;DHT22;34859;51.608;11.462;2022-12-18T11:29:08;-4.60;99.90
49042;DHT22;34859;51.608;11.462;2022-12-18T11:31:57;-4.60;99.90
49042;DHT22;34859;51.608;11.462;2022-12-18T11:35:04;-4.50;99.90
49042;DHT22;34859;51.608;11.462;2022-12-18T11:37:54;-4.50;99.90
49042;DHT22;34859;51.608;11.462;2022-12-18T11:40:42;-4.40;99.90
49042;DHT22;34859;51.608;11.462;2022-12-18T11:43:29;-4.30;99.90
49042;DHT22;34859;51.608;11.462;2022-12-18T11:46:19;-4.20;99.90
49042;DHT22;34859;51.608;11.462;2022-12-18T11:49:10;-4.20;99.90
49042;DHT22;34859;51.608;11.462;2022-12-18T11:52:04;-4.10;99.90
49042;DHT22;34859;51.608;11.462;2022-12-18T11:54:52;-4.10;99.90
49042;DHT22;34859;51.608;11.462;2022-12-18T11:57:41;-4.00;99.90
49042;DHT22;34859;51.608;11.462;2022-12-18T12:00:28;-4.00;99.90
49042;DHT22;34859;51.608;11.462;2022-12-18T12:06:01;-3.90;99.90
49042;DHT22;34859;51.608;11.462;2022-12-18T12:14:21;-3.80;99.90
49042;DHT22;34859;51.608;11.462;2022-12-18T12:20:02;-3.60;99.90
49042;DHT22;34859;51.608;11.462;2022-12-18T12:22:57;-3.60;99.90
49042;DHT22;34859;51.608;11.462;2022-12-18T12:25:49;-3.60;99.90
49042;DHT22;34859;51.608;11.462;2022-12-18T12:28:44;-3.60;99.90
49042;DHT22;34859;51.608;11.462;2022-12-18T12:34:42;-3.60;99.90
49042;DHT22;34859;51.608;11.462;2022-12-18T12:40:17;-3.30;99.90
49042;DHT22;34859;51.608;11.462;2022-12-18T12:43:03;-3.30;99.90
49042;DHT22;34859;51.608;11.462;2022-12-18T12:46:11;-3.20;99.90
49042;DHT22;34859;51.608;11.462;2022-12-18T12:48:56;-3.10;99.90
49042;DHT22;34859;51.608;11.462;2022-12-18T12:51:41;-3.00;99.90
49042;DHT22;34859;51.608;11.462;2022-12-18T12:54:27;-3.00;99.90
49042;DHT22;34859;51.608;11.462;2022-12-18T12:57:24;-3.10;99.90
49042;DHT22;34859;51.608;11.462;2022-12-18T13:00:11;-3.10;99.90
49042;DHT22;34859;51.608;11.462;2022-12-18T13:03:15;-3.10;99.90
49042;DHT22;34859;51.608;11.462;2022-12-18T13:06:08;-3.00;99.90
49042;DHT22;34859;51.608;11.462;2022-12-18T13:08:57;-3.00;99.90
49042;DHT22;34859;51.608;11.462;2022-12-18T13:11:42;-3.00;99.90
49042;DHT22;34859;51.608;11.462;2022-12-18T13:14:46;-3.20;99.90
49042;DHT22;34859;51.608;11.462;2022-12-18T13:17:30;-3.20;99.90
49042;DHT22;34859;51.608;11.462;2022-12-18T13:20:14;-3.30;99.90
49042;DHT22;34859;51.608;11.462;2022-12-18T13:22:59;-3.30;99.90
49042;DHT22;34859;51.608;11.462;2022-12-18T13:25:43;-3.40;99.90
49042;DHT22;34859;51.608;11.462;2022-12-18T13:34:28;-3.80;99.90
49042;DHT22;34859;51.608;11.462;2022-12-18T13:49:16;-4.10;99.90
49042;DHT22;34859;51.608;11.462;2022-12-18T13:52:19;-4.30;99.90
49042;DHT22;34859;51.608;11.462;2022-12-18T13:55:06;-4.40;99.90
49042;DHT22;34859;51.608;11.462;2022-12-18T13:57:52;-4.60;99.90
49042;DHT22;34859;51.608;11.462;2022-12-18T14:00:47;-4.70;99.90
49042;DHT22;34859;51.608;11.462;2022-12-18T14:03:33;-4.80;99.90
49042;DHT22;34859;51.608;11.462;2022-12-18T14:06:18;-4.80;99.90
49042;DHT22;34859;51.608;11.462;2022-12-18T14:09:03;-5.00;99.90
49042;DHT22;34859;51.608;11.462;2022-12-18T14:11:48;-5.00;99.90
49042;DHT22;34859;51.608;11.462;2022-12-18T14:14:33;-5.00;99.90
49042;DHT22;34859;51.608;11.462;2022-12-18T14:17:18;-5.10;99.90
49042;DHT22;34859;51.608;11.462;2022-12-18T14:20:03;-5.20;99.90
49042;DHT22;34859;51.608;11.462;2022-12-18T14:22:48;-5.20;99.90
49042;DHT22;34859;51.608;11.462;2022-12-18T14:25:35;-5.30;99.90
49042;DHT22;34859;51.608;11.462;2022-12-18T14:28:20;-5.30;99.90
49042;DHT22;34859;51.608;11.462;2022-12-18T14:31:16;-5.30;99.90
49042;DHT22;34859;51.608;11.462;2022-12-18T14:34:01;-5.30;99.90
49042;DHT22;34859;51.608;11.462;2022-12-18T14:36:52;-5.40;99.90
49042;DHT22;34859;51.608;11.462;2022-12-18T14:39:38;-5.40;99.90
49042;DHT22;34859;51.608;11.462;2022-12-18T14:42:24;-5.40;99.90
49042;DHT22;34859;51.608;11.462;2022-12-18T14:51:04;-5.50;99.90
49042;DHT22;34859;51.608;11.462;2022-12-18T14:53:53;-5.50;99.90
49042;DHT22;34859;51.608;11.462;2022-12-18T14:56:43;-5.60;99.90
49042;DHT22;34859;51.608;11.462;2022-12-18T14:59:29;-5.60;99.90
49042;DHT22;34859;51.608;11.462;2022-12-18T15:02:21;-5.60;99.90
49042;DHT22;34859;51.608;11.462;2022-12-18T15:07:58;-5.70;99.90
49042;DHT22;34859;51.608;11.462;2022-12-18T15:10:46;-5.80;99.90
49042;DHT22;34859;51.608;11.462;2022-12-18T15:13:31;-5.80;99.90
49042;DHT22;34859;51.608;11.462;2022-12-18T15:16:16;-5.80;99.90
49042;DHT22;34859;51.608;11.462;2022-12-18T15:19:01;-5.70;99.90
49042;DHT22;34859;51.608;11.462;2022-12-18T15:21:45;-5.70;99.90
49042;DHT22;34859;51.608;11.462;2022-12-18T15:24:31;-5.80;99.90
49042;DHT22;34859;51.608;11.462;2022-12-18T15:27:26;-5.80;99.90
49042;DHT22;34859;51.608;11.462;2022-12-18T15:30:21;-5.70;99.90
49042;DHT22;34859;51.608;11.462;2022-12-18T15:33:20;-5.70;99.90
49042;DHT22;34859;51.608;11.462;2022-12-18T15:36:10;-5.80;99.90
49042;DHT22;34859;51.608;11.462;2022-12-18T15:38:55;-5.70;99.90
49042;DHT22;34859;51.608;11.462;2022-12-18T15:41:41;-5.60;99.90
49042;DHT22;34859;51.608;11.462;2022-12-18T15:44:46;-5.50;99.90
49042;DHT22;34859;51.608;11.462;2022-12-18T15:47:33;-5.50;99.90
49042;DHT22;34859;51.608;11.462;2022-12-18T15:50:18;-5.60;99.90
49042;DHT22;34859;51.608;11.462;2022-12-18T15:53:04;-5.60;99.90
49042;DHT22;34859;51.608;11.462;2022-12-18T15:55:49;-5.70;99.90
49042;DHT22;34859;51.608;11.462;2022-12-18T15:58:53;-5.80;99.90
49042;DHT22;34859;51.608;11.462;2022-12-18T16:01:38;-5.80;99.90
49042;DHT22;34859;51.608;11.462;2022-12-18T16:04:39;-5.80;99.90
49042;DHT22;34859;51.608;11.462;2022-12-18T16:07:51;-5.60;99.90
49042;DHT22;34859;51.608;11.462;2022-12-18T16:10:36;-5.60;99.90
49042;DHT22;34859;51.608;11.462;2022-12-18T16:13:21;-5.70;99.90
49042;DHT22;34859;51.608;11.462;2022-12-18T16:16:07;-5.70;99.90
49042;DHT22;34859;51.608;11.462;2022-12-18T16:19:03;-5.70;99.90
49042;DHT22;34859;51.608;11.462;2022-12-18T16:21:51;-5.70;99.90
49042;DHT22;34859;51.608;11.462;2022-12-18T16:24:35;-5.70;99.90
49042;DHT22;34859;51.608;11.462;2022-12-18T16:27:20;-5.60;99.90
49042;DHT22;34859;51.608;11.462;2022-12-18T16:30:06;-5.70;99.90
49042;DHT22;34859;51.608;11.462;2022-12-18T16:32:58;-5.70;99.90
49042;DHT22;34859;51.608;11.462;2022-12-18T16:35:50;-5.70;99.90
49042;DHT22;34859;51.608;11.462;2022-12-18T16:38:34;-5.60;99.90
49042;DHT22;34859;51.608;11.462;2022-12-18T16:41:19;-5.50;99.90
49042;DHT22;34859;51.608;11.462;2022-12-18T16:44:22;-5.40;99.90
49042;DHT22;34859;51.608;11.462;2022-12-18T16:47:07;-5.30;99.90
49042;DHT22;34859;51.608;11.462;2022-12-18T16:49:53;-5.20;99.90
49042;DHT22;34859;51.608;11.462;2022-12-18T16:53:17;-5.10;99.90
49042;DHT22;34859;51.608;11.462;2022-12-18T16:56:23;-5.00;99.90
49042;DHT22;34859;51.608;11.462;2022-12-18T16:59:09;-5.00;99.90
49042;DHT22;34859;51.608;11.462;2022-12-18T17:01:54;-5.00;99.90
49042;DHT22;34859;51.608;11.462;2022-12-18T17:04:40;-4.90;99.90
49042;DHT22;34859;51.608;11.462;2022-12-18T17:07:29;-4.90;99.90
49042;DHT22;34859;51.608;11.462;2022-12-18T17:10:14;-4.90;99.90
49042;DHT22;34859;51.608;11.462;2022-12-18T17:12:58;-4.80;99.90
49042;DHT22;34859;51.608;11.462;2022-12-18T17:16:03;-4.80;99.90
49042;DHT22;34859;51.608;11.462;2022-12-18T17:19:28;-4.80;99.90
49042;DHT22;34859;51.608;11.462;2022-12-18T17:22:32;-4.80;99.90
49042;DHT22;34859;51.608;11.462;2022-12-18T17:25:17;-4.80;99.90
49042;DHT22;34859;51.608;11.462;2022-12-18T17:28:01;-4.80;99.90
49042;DHT22;34859;51.608;11.462;2022-12-18T17:30:54;-4.80;99.90
49042;DHT22;34859;51.608;11.462;2022-12-18T17:33:40;-4.70;99.90
49042;DHT22;34859;51.608;11.462;2022-12-18T17:36:44;-4.70;99.90
49042;DHT22;34859;51.608;11.462;2022-12-18T17:39:29;-4.70;99.90
49042;DHT22;34859;51.608;11.462;2022-12-18T17:42:23;-4.60;99.90
49042;DHT22;34859;51.608;11.462;2022-12-18T17:45:09;-4.60;99.90
49042;DHT22;34859;51.608;11.462;2022-12-18T17:47:56;-4.60;99.90
49042;DHT22;34859;51.608;11.462;2022-12-18T17:51:08;-4.50;99.90
49042;DHT22;34859;51.608;11.462;2022-12-18T17:53:56;-4.50;99.90
49042;DHT22;34859;51.608;11.462;2022-12-18T17:56:41;-4.50;99.90
49042;DHT22;34859;51.608;11.462;2022-12-18T18:00:00;-4.50;99.90
49042;DHT22;34859;51.608;11.462;2022-12-18T18:02:58;-4.50;99.90
49042;DHT22;34859;51.608;11.462;2022-12-18T18:05:44;-4.50;99.90
49042;DHT22;34859;51.608;11.462;2022-12-18T18:08:32;-4.50;99.90
49042;DHT22;34859;51.608;11.462;2022-12-18T18:11:21;-4.40;99.90
49042;DHT22;34859;51.608;11.462;2022-12-18T18:14:24;-4.40;99.90
49042;DHT22;34859;51.608;11.462;2022-12-18T18:17:11;-4.30;99.90
49042;DHT22;34859;51.608;11.462;2022-12-18T18:19:56;-4.30;99.90
49042;DHT22;34859;51.608;11.462;2022-12-18T18:22:43;-4.20;99.90